Time;durP1;ratioP1;P1;durP2;ratioP2;P2;SDS_P1;SDS_P2;PMS_P1;PMS_P2;Temp;Humidity;BMP_temperature;BMP_pressure;BME280_temperature;BME280_humidity;BME280_pressure;Samples;Min_cycle;Max_cycle;Signal;HPM_P1;HPM_P2
2021/04/06 00:07:38;;;;;;;4.28;1.80;;;;;;;-0.90;79.42;100242.00;20935737;28;20041;-69
2021/04/06 00:17:43;;;;;;;7.47;1.50;;;;;;;-1.02;79.23;100236.16;20953142;28;20056;-70
2021/04/06 00:27:48;;;;;;;8.05;1.90;;;;;;;-1.17;80.35;100232.00;20946813;28;20048;-70
2021/04/06 00:37:50;;;;;;;5.80;1.85;;;;;;;-1.11;79.29;100223.38;20933251;28;20047;-70
2021/04/06 00:47:59;;;;;;;5.95;1.73;;;;;;;-1.28;81.68;100205.59;20937954;28;20132;-70
2021/04/06 00:58:00;;;;;;;8.48;1.90;;;;;;;-1.26;81.88;100216.66;20938029;28;20048;-70
2021/04/06 01:08:06;;;;;;;7.03;1.65;;;;;;;-1.32;82.62;100211.59;20936018;28;20493;-70
2021/04/06 01:18:07;;;;;;;5.47;1.70;;;;;;;-1.40;83.14;100213.38;20957726;28;20037;-69
2021/04/06 01:28:09;;;;;;;12.02;2.63;;;;;;;-1.32;82.08;100206.47;20945657;28;20048;-69
2021/04/06 01:38:13;;;;;;;7.68;2.08;;;;;;;-1.40;81.82;100190.28;20929262;28;20041;-70
2021/04/06 01:48:15;;;;;;;10.38;1.92;;;;;;;-1.42;81.23;100174.03;20937078;28;20083;-70
2021/04/06 01:58:18;;;;;;;8.98;2.30;;;;;;;-1.34;81.05;100167.13;20921028;28;20044;-70
2021/04/06 02:08:21;;;;;;;7.05;1.80;;;;;;;-1.32;81.73;100171.38;20938918;28;20390;-70
2021/04/06 02:18:23;;;;;;;9.60;2.30;;;;;;;-1.31;81.63;100170.50;20931199;28;20084;-70
2021/04/06 02:28:25;;;;;;;10.82;2.53;;;;;;;-1.27;81.25;100170.50;20912868;28;20095;-69
2021/04/06 02:38:29;;;;;;;8.07;2.30;;;;;;;-1.19;82.26;100166.13;20946090;28;20041;-69
2021/04/06 02:48:47;;;;;;;9.88;2.40;;;;;;;-1.16;82.44;100143.81;20934854;28;20139;-70
2021/04/06 02:58:48;;;;;;;8.05;2.58;;;;;;;-1.15;82.02;100155.81;20933702;28;20111;-70
2021/04/06 03:08:58;;;;;;;9.00;2.35;;;;;;;-1.12;81.29;100144.66;20958235;28;20041;-69
2021/04/06 03:19:04;;;;;;;12.02;2.42;;;;;;;-1.22;80.75;100172.16;20943367;28;20049;-70
2021/04/06 03:29:05;;;;;;;11.02;3.45;;;;;;;-1.18;80.80;100162.69;20947304;28;20079;-70
2021/04/06 03:39:07;;;;;;;12.57;2.28;;;;;;;-1.23;81.92;100161.91;20963739;28;20045;-70
2021/04/06 03:49:12;;;;;;;8.55;2.28;;;;;;;-1.17;81.76;100169.53;20955528;28;20098;-70
2021/04/06 03:59:14;;;;;;;13.80;2.90;;;;;;;-1.17;80.95;100160.13;20939359;28;20049;-70
2021/04/06 04:09:15;;;;;;;10.48;2.67;;;;;;;-1.10;80.84;100164.31;20946983;28;20123;-70
2021/04/06 04:19:16;;;;;;;11.88;2.63;;;;;;;-1.03;80.63;100159.97;20953423;28;20045;-70
2021/04/06 04:29:17;;;;;;;14.63;3.17;;;;;;;-1.13;80.44;100150.66;20930454;28;20127;-70
2021/04/06 04:39:18;;;;;;;9.27;2.63;;;;;;;-1.37;81.67;100146.59;20918541;22;20077;-68
2021/04/06 04:49:19;;;;;;;14.43;3.83;;;;;;;-1.41;81.30;100137.25;20864707;28;20053;-68
2021/04/06 04:59:20;;;;;;;14.77;3.13;;;;;;;-1.44;82.54;100147.56;20851304;28;20037;-68
2021/04/06 05:09:21;;;;;;;8.07;2.83;;;;;;;-1.41;83.18;100162.91;20857046;28;20488;-68
2021/04/06 05:19:22;;;;;;;11.77;3.25;;;;;;;-1.39;82.82;100158.63;20864671;28;20084;-68
2021/04/06 05:29:23;;;;;;;18.13;3.88;;;;;;;-1.35;82.73;100175.69;20857420;28;20052;-68
2021/04/06 05:39:24;;;;;;;16.52;3.15;;;;;;;-1.33;82.03;100158.56;20863924;28;20204;-68
2021/04/06 05:49:29;;;;;;;9.13;2.70;;;;;;;-1.14;81.38;100165.22;20877132;28;20038;-68
2021/04/06 05:59:30;;;;;;;12.15;3.30;;;;;;;-0.89;80.65;100169.22;20834063;28;20493;-68
2021/04/06 06:09:34;;;;;;;12.73;3.00;;;;;;;-0.68;80.12;100169.81;20868960;28;20455;-68
2021/04/06 06:19:35;;;;;;;11.75;3.35;;;;;;;-0.45;78.67;100165.22;20846295;28;20108;-68
2021/04/06 06:29:36;;;;;;;12.60;4.00;;;;;;;0.12;77.52;100175.53;20832644;28;20046;-67
2021/04/06 06:39:48;;;;;;;15.32;3.50;;;;;;;0.24;75.79;100170.22;20850025;28;20037;-68
2021/04/06 06:49:53;;;;;;;11.98;3.60;;;;;;;0.62;74.96;100165.25;20863719;28;20052;-68
2021/04/06 07:00:02;;;;;;;11.30;3.10;;;;;;;0.54;74.92;100172.28;20841800;28;20083;-68
2021/04/06 07:10:03;;;;;;;10.32;3.03;;;;;;;0.88;73.72;100175.09;20830909;28;20103;-68
2021/04/06 07:20:05;;;;;;;9.93;2.60;;;;;;;1.09;72.37;100182.41;20857454;28;20397;-68
2021/04/06 07:30:08;;;;;;;15.93;3.40;;;;;;;1.25;71.04;100183.81;20821083;28;20050;-67
2021/04/06 07:40:11;;;;;;;11.48;2.85;;;;;;;1.20;72.92;100184.78;20825514;28;20053;-67
2021/04/06 07:50:13;;;;;;;12.63;3.55;;;;;;;1.33;71.63;100183.66;20826813;28;20097;-68
2021/04/06 08:00:50;;;;;;;27.63;11.85;;;;;;;1.24;72.25;100195.00;20817108;28;20053;-67
2021/04/06 08:10:51;;;;;;;11.23;3.42;;;;;;;1.45;72.05;100193.72;20832474;28;20526;-67
2021/04/06 08:21:07;;;;;;;13.65;3.55;;;;;;;1.52;71.99;100189.31;20835056;28;20049;-68
2021/04/06 08:31:32;;;;;;;12.43;3.10;;;;;;;1.84;70.96;100180.84;20855911;28;20106;-68
2021/04/06 08:41:35;;;;;;;9.85;3.67;;;;;;;2.16;69.77;100188.72;20870318;28;20424;-68
2021/04/06 08:51:41;;;;;;;11.75;3.47;;;;;;;2.17;70.30;100189.56;20879442;28;20087;-68
2021/04/06 09:01:53;;;;;;;11.45;2.80;;;;;;;2.39;69.55;100183.84;20844199;28;20494;-68
2021/04/06 09:11:56;;;;;;;12.00;3.10;;;;;;;2.63;68.44;100179.81;20837746;28;20049;-68
2021/04/06 09:22:00;;;;;;;10.73;3.05;;;;;;;2.86;68.60;100174.88;20858201;28;20050;-68
2021/04/06 09:32:04;;;;;;;13.52;3.10;;;;;;;3.14;68.44;100175.00;20833416;28;20049;-68
2021/04/06 09:42:06;;;;;;;10.53;2.97;;;;;;;3.14;67.54;100167.25;20872764;28;20049;-69
2021/04/06 09:52:13;;;;;;;12.15;3.60;;;;;;;3.30;68.15;100165.06;20858541;28;20051;-69
2021/04/06 10:02:16;;;;;;;11.13;3.00;;;;;;;3.31;69.18;100157.25;20851837;28;20053;-69
2021/04/06 10:12:20;;;;;;;13.10;4.30;;;;;;;3.07;70.16;100134.69;20865946;28;20048;-68
2021/04/06 10:22:24;;;;;;;11.55;3.40;;;;;;;3.15;68.83;100127.53;20839556;28;20045;-68
2021/04/06 10:32:40;;;;;;;10.60;2.37;;;;;;;4.10;61.56;100113.44;20844602;28;20041;-68
2021/04/06 10:42:41;;;;;;;6.90;2.70;;;;;;;4.71;60.33;100093.22;20843897;28;20050;-68
2021/04/06 10:52:42;;;;;;;6.78;2.33;;;;;;;5.24;56.83;100082.63;20848092;28;20046;-69
2021/04/06 11:02:43;;;;;;;7.82;2.30;;;;;;;5.30;55.76;100051.25;20863723;28;20092;-69
2021/04/06 11:12:44;;;;;;;11.27;2.95;;;;;;;5.87;56.62;100025.63;20867203;28;20048;-69
2021/04/06 11:22:45;;;;;;;8.98;2.58;;;;;;;4.33;64.82;100024.56;20859729;28;20514;-71
2021/04/06 11:32:46;;;;;;;14.00;3.47;;;;;;;5.61;66.27;99999.84;20862291;28;20429;-69
2021/04/06 11:42:47;;;;;;;11.60;3.17;;;;;;;5.96;59.85;99991.47;20869848;28;20497;-70
2021/04/06 11:52:49;;;;;;;7.60;3.05;;;;;;;5.70;59.50;99978.69;20819586;28;20108;-70
2021/04/06 12:02:50;;;;;;;5.05;1.65;;;;;;;2.84;75.07;100038.84;20880326;28;20046;-69
2021/04/06 12:12:51;;;;;;;4.78;1.50;;;;;;;1.46;86.07;100065.66;20825107;28;20136;-70
2021/04/06 12:22:52;;;;;;;9.60;2.65;;;;;;;1.78;90.70;100031.38;20812331;28;20049;-70
2021/04/06 12:32:53;;;;;;;7.55;3.30;;;;;;;3.23;85.63;100003.22;20828141;28;20046;-70
2021/04/06 12:42:54;;;;;;;10.80;2.92;;;;;;;3.32;81.28;99977.91;20837649;28;20048;-70
2021/04/06 12:52:55;;;;;;;9.35;3.00;;;;;;;4.07;80.50;99955.53;20869477;28;20052;-69
2021/04/06 13:02:57;;;;;;;7.75;2.45;;;;;;;4.64;70.51;99947.44;20828707;28;20519;-69
2021/04/06 13:12:57;;;;;;;7.55;2.17;;;;;;;5.12;70.56;99929.16;20845924;28;20094;-69
2021/04/06 13:22:58;;;;;;;8.43;2.20;;;;;;;5.21;62.75;99917.56;20892244;28;20045;-69
2021/04/06 13:32:59;;;;;;;3.03;1.08;;;;;;;4.98;60.09;99891.69;20825511;28;20045;-69
2021/04/06 13:43:04;;;;;;;6.70;1.08;;;;;;;5.26;59.72;99870.66;20823729;28;20049;-69
2021/04/06 13:53:05;;;;;;;7.00;1.40;;;;;;;5.49;55.46;99866.19;20879087;28;20049;-69
2021/04/06 14:03:06;;;;;;;3.83;0.90;;;;;;;5.59;52.14;99856.28;20821902;28;20049;-69
2021/04/06 14:13:09;;;;;;;4.70;1.92;;;;;;;5.28;52.59;99855.91;20822306;28;20056;-69
2021/04/06 14:23:13;;;;;;;3.65;0.85;;;;;;;5.20;50.88;99855.34;20829950;28;20045;-69
2021/04/06 14:33:17;;;;;;;4.50;1.35;;;;;;;5.30;50.26;99857.50;20820582;28;20121;-70
2021/04/06 14:43:27;;;;;;;3.83;1.00;;;;;;;5.27;52.69;99869.78;20816746;28;20453;-69
2021/04/06 14:53:29;;;;;;;4.25;1.45;;;;;;;5.66;50.32;99846.47;20832265;28;20104;-69
2021/04/06 15:03:31;;;;;;;4.25;1.10;;;;;;;5.87;47.55;99830.84;20839703;28;20460;-69
2021/04/06 15:13:36;;;;;;;4.88;1.27;;;;;;;5.75;47.10;99825.31;20859407;28;20049;-69
2021/04/06 15:23:38;;;;;;;7.15;1.27;;;;;;;5.45;47.86;99812.75;20900891;28;20049;-69
2021/04/06 15:33:41;;;;;;;4.57;1.33;;;;;;;5.48;49.07;99832.56;20833592;28;20076;-69
2021/04/06 15:43:43;;;;;;;4.78;1.15;;;;;;;3.68;62.96;99868.91;20833679;28;20062;-69
2021/04/06 15:53:45;;;;;;;4.63;1.58;;;;;;;2.92;74.92;99855.97;20839596;28;20103;-70
2021/04/06 16:03:51;;;;;;;6.15;1.40;;;;;;;3.18;73.61;99853.38;20910457;28;20051;-70
2021/04/06 16:13:52;;;;;;;3.70;1.30;;;;;;;3.11;75.15;99851.88;20913056;28;20073;-70
2021/04/06 16:23:58;;;;;;;4.43;0.98;;;;;;;3.21;73.13;99868.78;20889460;28;20304;-70
2021/04/06 16:33:59;;;;;;;3.22;0.70;;;;;;;2.83;67.67;99846.75;20829014;28;20623;-69
2021/04/06 16:44:00;;;;;;;2.38;0.60;;;;;;;3.01;66.18;99845.31;20825535;28;20426;-71
2021/04/06 16:54:01;;;;;;;3.63;1.15;;;;;;;3.10;64.68;99860.53;20835873;28;20096;-70
2021/04/06 17:04:02;;;;;;;3.78;1.00;;;;;;;2.98;66.94;99879.03;20826896;28;20093;-70
2021/04/06 17:14:05;;;;;;;6.88;1.73;;;;;;;2.05;76.52;99915.38;20854242;28;20056;-70
2021/04/06 17:24:07;;;;;;;5.32;2.17;;;;;;;1.07;92.57;99913.56;20883374;28;20045;-71
2021/04/06 17:34:08;;;;;;;5.03;2.25;;;;;;;0.98;94.96;99888.03;20824539;28;20041;-71
2021/04/06 17:44:09;;;;;;;4.03;1.50;;;;;;;1.22;86.19;99882.28;20823026;28;20145;-71
2021/04/06 17:54:10;;;;;;;4.22;2.10;;;;;;;1.85;80.54;99878.94;20831236;28;20068;-71
2021/04/06 18:04:11;;;;;;;4.85;2.08;;;;;;;1.68;82.36;99891.44;20900655;28;20045;-69
2021/04/06 18:14:12;;;;;;;6.78;2.38;;;;;;;1.65;83.59;99891.53;20874628;28;20103;-70
2021/04/06 18:24:13;;;;;;;5.70;2.45;;;;;;;1.76;81.94;99904.13;20878664;28;20440;-71
2021/04/06 18:34:14;;;;;;;10.18;3.85;;;;;;;1.80;79.61;99905.75;20819832;28;20049;-71
2021/04/06 18:44:17;;;;;;;8.88;2.70;;;;;;;1.81;79.45;99912.59;20819895;28;20100;-70
2021/04/06 18:54:20;;;;;;;6.88;2.65;;;;;;;1.68;82.42;99906.91;20828170;28;20140;-70
2021/04/06 19:04:20;;;;;;;5.43;2.53;;;;;;;1.70;81.41;99918.88;20819992;28;20080;-70
2021/04/06 19:14:22;;;;;;;5.90;2.40;;;;;;;1.64;81.14;99910.44;20849936;28;20057;-70
2021/04/06 19:24:23;;;;;;;8.20;3.35;;;;;;;1.65;81.67;99912.16;20876664;28;20053;-70
2021/04/06 19:34:24;;;;;;;11.30;3.75;;;;;;;1.51;82.82;99924.56;20901439;28;20057;-70
2021/04/06 19:44:25;;;;;;;13.52;4.30;;;;;;;1.45;81.57;99941.03;20893723;28;20190;-70
2021/04/06 19:54:26;;;;;;;12.32;4.68;;;;;;;1.52;81.72;99932.25;20888078;28;20136;-70
2021/04/06 20:04:27;;;;;;;6.68;3.63;;;;;;;1.68;76.77;99943.88;20868588;28;20053;-70
2021/04/06 20:14:28;;;;;;;6.30;2.60;;;;;;;1.75;74.49;99938.56;20913600;28;20653;-70
2021/04/06 20:24:29;;;;;;;5.30;2.63;;;;;;;1.70;73.21;99936.94;20885053;28;20112;-70
2021/04/06 20:34:30;;;;;;;8.07;2.60;;;;;;;1.63;74.72;99945.72;20830018;28;20045;-71
2021/04/06 20:44:31;;;;;;;5.55;2.00;;;;;;;1.52;74.45;99931.41;20829174;28;20050;-70
2021/04/06 20:54:32;;;;;;;7.78;2.17;;;;;;;1.47;73.50;99939.28;20835492;28;20104;-71
2021/04/06 21:04:33;;;;;;;6.32;2.33;;;;;;;1.57;73.51;99940.72;20826637;28;20061;-70
2021/04/06 21:14:35;;;;;;;4.20;1.98;;;;;;;1.35;75.41;99957.59;20858180;28;20095;-70
2021/04/06 21:24:36;;;;;;;6.40;2.08;;;;;;;1.33;76.25;99964.50;20879130;28;20050;-70
2021/04/06 21:34:37;;;;;;;5.65;2.00;;;;;;;1.29;77.08;99973.22;20824549;28;20042;-70
2021/04/06 21:44:38;;;;;;;4.85;1.77;;;;;;;1.28;76.69;99980.09;20823910;28;20046;-69
2021/04/06 21:54:39;;;;;;;5.32;1.95;;;;;;;1.24;77.20;99983.63;20830313;28;20503;-70
2021/04/06 22:04:40;;;;;;;4.15;1.80;;;;;;;1.24;75.89;99981.06;20820694;28;20049;-70
2021/04/06 22:14:41;;;;;;;4.45;1.60;;;;;;;1.20;76.52;99991.47;20820573;28;20497;-70
2021/04/06 22:24:42;;;;;;;7.93;2.05;;;;;;;1.21;74.79;99993.19;20828163;28;20424;-70
2021/04/06 22:34:44;;;;;;;4.93;1.80;;;;;;;1.20;75.33;100001.78;20819533;28;20049;-69
2021/04/06 22:44:46;;;;;;;9.00;2.40;;;;;;;1.24;75.84;100003.41;20819443;28;20464;-70
2021/04/06 22:54:47;;;;;;;5.20;2.22;;;;;;;1.21;75.13;100008.63;20826920;28;20041;-70
2021/04/06 23:04:48;;;;;;;6.95;3.20;;;;;;;1.20;76.35;100010.38;20818595;28;20059;-70
2021/04/06 23:14:51;;;;;;;6.93;2.13;;;;;;;1.06;76.64;100019.28;20822611;28;20076;-70
2021/04/06 23:24:52;;;;;;;8.57;2.58;;;;;;;1.11;78.21;100032.91;20842347;28;20460;-70
2021/04/06 23:34:53;;;;;;;5.05;2.67;;;;;;;1.07;77.73;100039.00;20832532;28;20277;-70
2021/04/06 23:44:54;;;;;;;4.50;2.05;;;;;;;1.02;77.85;100040.81;20832609;28;20049;-69
2021/04/06 23:54:55;;;;;;;5.93;2.42;;;;;;;0.92;77.33;100041.91;20840003;28;20511;-68
